Stations météo

réclame
Mon MeteoGroup
Albacete, Espagne (8279): Température de l'air & dewpoint: 12.01.2019 12:00:00 - 18.01.2019 12:00:00 (CET)Albacete, Espagne (8279): Vitesse du vent & gusts: 12.01.2019 12:00:00 - 18.01.2019 12:00:00 (CET)Albacete, Espagne (8279): Direction du vent: 12.01.2019 12:00:00 - 18.01.2019 12:00:00 (CET)Albacete, Espagne (8279): reduced air pressure: 12.01.2019 12:00:00 - 18.01.2019 12:00:00 (CET)Albacete, Espagne (8279): Quantités de précipitations: 12.01.2019 12:00:00 - 18.01.2019 12:00:00 (CET)
Date & Time tt [°C] td [°C] ff [km/h] ff [knt] fx [km/h] fx [knt] dd ppp [hPa] rr [mm]
18.01.2019 12:00:00 6,0 -0,5 3 1 9 5 W 1021,2 0,0
18.01.2019 11:00:00 2,5 0,2 0 0 8 4 N 1022,1 0,0
18.01.2019 10:00:00 0,0 -0,5 0 0 0 0 SSW 1022,6 0,0
18.01.2019 09:00:00 -1,1 -1,4 0 0 3 2 N 1022,9 0,0
18.01.2019 08:00:00 -1,5 -2,0 0 0 1 1 N 1022,6 0,0
18.01.2019 07:00:00 -1,4 -2,0 0 0 0 0 N 1022,4 -
18.01.2019 06:00:00 -0,5 -1,4 0 0 0 0 N 1021,8 0,0
18.01.2019 05:00:00 0,1 -1,0 0 0 0 0 N 1021,5 0,0
18.01.2019 04:00:00 1,2 0,2 0 0 0 0 N 1021,5 0,0
18.01.2019 03:00:00 1,9 0,2 0 0 0 0 N 1021,2 0,0
18.01.2019 02:00:00 3,2 0,9 0 0 0 0 N 1021,1 0,0
18.01.2019 01:00:00 4,1 1,7 0 0 0 0 N 1020,9 -
18.01.2019 00:00:00 4,3 1,7 0 0 6 3 N 1021,2 0,0
17.01.2019 23:00:00 4,6 1,7 0 0 9 5 WNW 1020,6 0,0
17.01.2019 22:00:00 5,3 1,9 2 1 15 8 W 1020,2 0,0
17.01.2019 21:00:00 5,5 1,7 2 1 14 7 WNW 1019,6 0,0
17.01.2019 20:00:00 5,4 1,3 3 2 14 8 W 1019,2 0,0
17.01.2019 19:00:00 5,6 0,9 4 2 15 8 W 1018,6 -
17.01.2019 18:00:00 6,8 0,9 4 2 23 12 W 1017,8 0,0
17.01.2019 17:00:00 8,0 0,6 5 3 19 10 WNW 1017,2 0,0
17.01.2019 16:00:00 8,8 0,6 4 2 17 9 WNW 1016,8 0,0
17.01.2019 15:00:00 8,7 0,6 5 3 18 10 WNW 1017,1 0,0
17.01.2019 14:00:00 8,0 0,2 8 4 24 13 W 1017,5 0,0
17.01.2019 13:00:00 7,5 0,2 5 3 20 11 WNW 1018,3 -
17.01.2019 12:00:00 6,6 2,1 2 1 13 7 NW 1019,1 0,0
17.01.2019 11:00:00 4,3 2,1 5 3 11 6 W 1020,0 0,0
17.01.2019 10:00:00 2,8 1,5 0 0 13 7 W 1019,8 0,0
17.01.2019 09:00:00 2,0 1,1 2 1 12 7 WNW 1019,8 0,0
17.01.2019 08:00:00 1,0 0,4 3 1 10 6 WSW 1019,9 0,0
17.01.2019 07:00:00 0,8 0,2 4 2 9 5 WSW 1019,7 -
17.01.2019 06:00:00 0,6 0,0 0 0 4 2 W 1019,5 0,0
17.01.2019 05:00:00 0,1 -0,7 0 0 0 0 W 1020,1 0,0
17.01.2019 04:00:00 0,6 0,0 0 0 0 0 N 1020,3 0,0
17.01.2019 03:00:00 1,1 0,2 0 0 7 4 W 1020,7 0,0
17.01.2019 02:00:00 1,4 0,2 0 0 0 0 N 1020,5 0,0
17.01.2019 01:00:00 2,6 1,1 0 0 5 3 N 1020,6 -
17.01.2019 00:00:00 3,4 1,5 1 0 13 7 W 1020,7 0,0
16.01.2019 23:00:00 3,7 1,5 2 1 10 6 W 1020,7 0,0
16.01.2019 22:00:00 4,2 1,5 1 1 10 5 WNW 1020,2 0,0
16.01.2019 21:00:00 5,6 2,5 3 2 11 6 WSW 1019,7 0,0
16.01.2019 20:00:00 6,2 2,3 1 1 14 7 WSW 1019,1 0,0
16.01.2019 19:00:00 6,9 2,3 2 1 20 11 WSW 1018,8 -
16.01.2019 18:00:00 8,5 1,9 10 5 25 13 W 1018,2 0,0
16.01.2019 17:00:00 11,0 2,1 9 5 23 12 W 1017,2 0,0
16.01.2019 16:00:00 12,0 2,5 8 4 24 13 W 1017,1 0,0
16.01.2019 15:00:00 12,4 3,0 9 5 22 12 W 1017,3 0,0
16.01.2019 14:00:00 12,2 2,9 6 3 17 9 WNW 1017,9 0,0
16.01.2019 13:00:00 9,9 2,5 3 2 12 7 W 1019,5 -
16.01.2019 12:00:00 8,4 2,3 0 0 5 3 WSW 1020,7 0,0
16.01.2019 11:00:00 4,4 2,7 0 0 1 0 N 1022,0 0,0
16.01.2019 10:00:00 0,0 -0,3 0 0 0 0 N 1023,2 0,0
16.01.2019 09:00:00 -0,9 -1,2 0 0 0 0 N 1023,1 0,0
16.01.2019 08:00:00 -1,3 -1,7 0 0 0 0 N 1023,1 0,0
16.01.2019 07:00:00 -1,1 -1,7 0 0 0 0 N 1022,9 -
16.01.2019 06:00:00 0,0 -0,5 0 0 0 0 N 1022,6 0,0
16.01.2019 05:00:00 1,2 0,6 0 0 0 0 N 1022,6 0,0
16.01.2019 04:00:00 2,1 1,3 0 0 0 0 N 1022,7 0,0
16.01.2019 03:00:00 2,7 1,7 0 0 4 2 N 1022,7 0,0
16.01.2019 02:00:00 4,2 3,0 0 0 7 4 S 1022,3 0,0
16.01.2019 01:00:00 4,8 2,7 0 0 5 3 SSW 1022,1 -
16.01.2019 00:00:00 6,4 3,6 0 0 11 6 SSW 1022,0 0,0
15.01.2019 23:00:00 6,8 3,4 5 3 16 9 S 1022,0 0,0
15.01.2019 22:00:00 7,8 2,9 6 3 14 8 S 1021,6 0,0
15.01.2019 21:00:00 8,7 1,7 2 1 12 7 S 1021,3 0,0
15.01.2019 20:00:00 9,4 0,6 2 1 14 8 SSE 1020,8 0,0
15.01.2019 19:00:00 10,7 -0,5 2 1 13 7 SSE 1020,2 -
15.01.2019 18:00:00 12,3 -0,3 4 2 16 9 SE 1019,4 0,0
15.01.2019 17:00:00 14,4 0,2 5 3 21 12 SSE 1018,8 0,0
15.01.2019 16:00:00 15,9 1,3 9 5 25 13 SE 1018,3 0,0
15.01.2019 15:00:00 15,7 1,1 10 5 20 11 SE 1018,4 0,0
15.01.2019 14:00:00 15,1 1,3 8 4 21 12 SSE 1019,1 0,0
15.01.2019 13:00:00 14,4 1,9 5 3 15 8 SSE 1020,1 -
15.01.2019 12:00:00 9,0 2,5 3 2 10 6 ENE 1022,5 0,0
15.01.2019 11:00:00 3,9 1,1 3 2 10 5 ENE 1024,6 0,0
15.01.2019 10:00:00 0,2 -0,7 0 0 2 1 N 1024,9 0,0
15.01.2019 09:00:00 -1,7 -2,5 0 0 0 0 E 1025,3 0,0
15.01.2019 08:00:00 -1,9 -3,0 0 0 0 0 N 1024,9 0,0
15.01.2019 07:00:00 -1,4 -2,7 0 0 0 0 N 1024,4 -
15.01.2019 06:00:00 -0,8 -2,5 0 0 0 0 N 1023,8 0,0
15.01.2019 05:00:00 0,0 -2,5 0 0 0 0 N 1023,9 0,0
15.01.2019 04:00:00 1,8 -0,7 0 0 7 4 N 1023,8 0,0
15.01.2019 03:00:00 1,3 -1,4 0 0 0 0 SW 1024,0 0,0
15.01.2019 02:00:00 2,3 -1,2 0 0 0 0 N 1023,6 0,0
15.01.2019 01:00:00 3,4 -0,7 0 0 0 0 N 1023,4 -
15.01.2019 00:00:00 4,3 -1,0 0 0 10 5 NW 1023,5 0,0
14.01.2019 23:00:00 5,6 -1,0 0 0 8 5 W 1022,7 0,0
14.01.2019 22:00:00 7,1 -0,5 1 1 9 5 SW 1022,1 0,0
14.01.2019 21:00:00 8,4 -0,7 3 1 15 8 WSW 1021,3 0,0
14.01.2019 20:00:00 9,4 -0,5 6 3 16 9 WSW 1020,7 0,0
14.01.2019 19:00:00 10,4 -0,5 7 4 23 12 W 1020,1 -
14.01.2019 18:00:00 12,5 0,2 9 5 21 11 W 1019,1 0,0
14.01.2019 17:00:00 15,1 0,9 8 4 27 14 W 1018,5 0,0
14.01.2019 16:00:00 16,6 2,3 8 4 25 13 WNW 1018,5 0,0
14.01.2019 15:00:00 15,6 2,1 9 5 27 15 WNW 1018,8 0,0
14.01.2019 14:00:00 15,2 2,1 7 4 25 14 WNW 1019,5 0,0
14.01.2019 13:00:00 - - - - - - - - -
14.01.2019 12:00:00 11,9 1,9 7 4 27 14 WNW 1022,0 0,0
14.01.2019 11:00:00 7,3 1,5 6 3 14 8 W 1024,0 0,0
14.01.2019 10:00:00 3,2 0,0 0 0 6 3 W 1025,4 0,0
14.01.2019 09:00:00 0,8 -1,2 0 0 0 0 N 1026,0 0,0
14.01.2019 08:00:00 1,2 -1,0 0 0 8 4 N 1025,9 0,0
14.01.2019 07:00:00 1,2 -1,4 0 0 7 4 W 1025,8 -
14.01.2019 06:00:00 1,7 -1,4 1 0 8 4 W 1025,6 0,0
14.01.2019 05:00:00 2,1 -1,4 0 0 8 4 N 1025,8 0,0
14.01.2019 04:00:00 2,5 -1,4 1 1 10 5 WSW 1026,4 0,0
14.01.2019 03:00:00 2,9 -1,4 4 2 16 8 W 1026,5 0,0
14.01.2019 02:00:00 3,2 -1,2 3 2 14 8 W 1026,3 0,0
14.01.2019 01:00:00 2,9 -2,0 1 1 11 6 W 1026,9 -
14.01.2019 00:00:00 3,6 -2,2 5 3 14 8 W 1027,0 0,0
13.01.2019 23:00:00 4,5 -2,0 6 3 14 7 W 1026,9 0,0
13.01.2019 22:00:00 4,9 -2,5 5 3 13 7 WSW 1026,7 0,0
13.01.2019 21:00:00 5,8 -2,5 6 3 18 10 W 1026,5 0,0
13.01.2019 20:00:00 6,8 -2,7 7 4 20 11 W 1026,2 0,0
13.01.2019 19:00:00 8,2 -2,5 8 4 24 13 W 1025,7 -
13.01.2019 18:00:00 9,8 -2,0 10 5 29 16 W 1024,9 0,0
13.01.2019 17:00:00 11,7 -1,4 11 6 26 14 W 1024,0 0,0
13.01.2019 16:00:00 13,0 -0,3 8 4 23 12 W 1024,0 0,0
13.01.2019 15:00:00 12,3 -0,5 10 5 25 14 WNW 1024,8 0,0
13.01.2019 14:00:00 11,4 -0,5 8 4 24 13 WNW 1025,6 0,0
13.01.2019 13:00:00 9,3 -1,2 9 5 23 13 W 1027,1 -
13.01.2019 12:00:00 7,6 -0,5 6 3 20 11 WNW 1028,8 0,0
13.01.2019 11:00:00 4,2 0,4 5 3 16 9 W 1030,3 0,0
13.01.2019 10:00:00 0,0 -1,7 5 3 12 7 W 1031,4 0,0
13.01.2019 09:00:00 -1,4 -2,5 0 0 4 2 W 1031,5 0,0
13.01.2019 08:00:00 -1,4 -2,5 0 0 5 3 SW 1030,9 0,0
13.01.2019 07:00:00 -1,9 -3,3 0 0 5 3 W 1031,0 -
13.01.2019 06:00:00 -1,2 -2,7 0 0 11 6 WSW 1030,7 0,0
13.01.2019 05:00:00 -0,9 -2,5 0 0 3 2 W 1031,0 0,0
13.01.2019 04:00:00 -1,6 -4,2 0 0 0 0 N 1032,0 0,0
13.01.2019 03:00:00 0,0 -2,7 0 0 9 5 N 1031,2 0,0
13.01.2019 02:00:00 0,1 -3,0 1 0 6 3 WSW 1030,9 0,0
13.01.2019 01:00:00 0,3 -3,9 0 0 4 2 N 1031,3 -
13.01.2019 00:00:00 1,1 -4,2 1 0 12 7 WSW 1031,4 0,0
12.01.2019 23:00:00 1,6 -4,8 6 3 13 7 WSW 1031,2 0,0
12.01.2019 22:00:00 2,5 -5,1 4 2 10 6 SW 1030,7 0,0
12.01.2019 21:00:00 4,0 -5,1 3 2 13 7 W 1030,4 0,0
12.01.2019 20:00:00 5,0 -4,5 4 2 9 5 W 1029,7 0,0
12.01.2019 19:00:00 6,2 -4,2 1 1 9 5 W 1029,2 -
12.01.2019 18:00:00 8,7 -3,3 3 2 10 5 W 1027,9 0,0
12.01.2019 17:00:00 10,7 -2,7 4 2 12 6 W 1027,2 0,0
12.01.2019 16:00:00 11,5 -1,7 5 3 11 6 W 1026,9 0,0
12.01.2019 15:00:00 10,5 -1,4 1 1 8 4 N 1027,3 0,0
12.01.2019 14:00:00 8,8 -2,2 2 1 8 4 WNW 1028,5 0,0
12.01.2019 13:00:00 7,0 -2,7 2 1 7 4 NW 1029,7 -
12.01.2019 12:00:00 5,5 -3,3 2 1 9 5 SW 1031,4 0,0

tt = Température de l'air
td = dewpoint
ff = Vitesse du vent
fx = gusts
dd = Direction du vent
ppp = reduced air pressure
rr = Quantités de précipitations

stations d'obs. à proximité